Řízení letového provozu České republiky  
Aktualizace dat:  19.06.2024 03:18:39 UTC English version
   METEO Zobrazení stránky:  19.06.2024 03:19:59 UTC  
vysvětlivky
METAR EDAC 190250Z AUTO VRB02KT 9999 // FEW008/// SCT047/// BKN160/// 16/16 Q1012=
METAR EDDB 190250Z AUTO 26012KT 9999 SCT007 OVC014 18/16 Q1010 TEMPO BKN008=
METAR EDDC 190250Z AUTO 25006KT 210V290 9999 SHRA FEW///CB 18/17 Q1012=
METAR EDDE 190250Z AUTO VRB01KT 9999 -SHRA BKN011 FEW///TCU 15/14 Q1012=
METAR EDDF 190250Z AUTO 25002KT CAVOK 17/16 Q1012 NOSIG=
METAR EDDM 190250Z AUTO VRB02KT 9999 2300 BR NCD 16/15 Q1013 NOSIG=
METAR EDDN 190250Z AUTO VRB02KT 4800 SHRA BR FEW042 FEW///TCU 18/17 Q1014 RETS=
METAR EDDP 190250Z AUTO 31006KT 280V340 9999 SCT018 16/15 Q1012 TEMPO BKN008=
METAR EDQM 190250Z AUTO 23007KT 200V260 9999 // FEW072/// BKN086/// BKN100/// 17/16 Q1014=
METAR EPBY 190300Z 20006KT CAVOK 17/16 Q1009=
METAR EPGD 190300Z 20007KT CAVOK 16/16 Q1008=
METAR EPKK 190300Z 02003KT 340V050 CAVOK 16/15 Q1013=
METAR EPKT 190300Z 13007KT CAVOK 19/15 Q1013=
METAR EPLB 190300Z 19005KT CAVOK 20/16 Q1014=
METAR EPLL 190300Z 30006KT 270V340 9999 FEW044 19/15 Q1014=
METAR EPMO 190300Z 28010KT 9999 FEW022 SCT047CB 18/17 Q1013=
METAR EPPO 190300Z 17007KT CAVOK 17/16 Q1009=
METAR EPRZ 190300Z 17002KT CAVOK 18/15 Q1014=
METAR EPWA 190300Z 16003KT CAVOK 18/17 Q1012 NOSIG=
METAR EPWR 190300Z 17006KT CAVOK 18/15 Q1012=
METAR LHBP 190300Z 00000KT CAVOK 16/15 Q1015 NOSIG=
METAR LHPR 190245Z AUTO 11005KT 9999 FEW003 17/16 Q1013=
METAR LHSM 190245Z AUTO 18008KT CAVOK 19/17 Q1014=
METAR LKBC 190300Z AUTO VRB02KT CAVOK 16/14 Q1012=
METAR LKCR 190300Z AUTO VRB02KT CAVOK 19/16 Q1012=
METAR LKCS 190300Z AUTO 20003KT CAVOK 15/14 Q1013=
METAR LKCV 190300Z 04003KT 350V130 CAVOK 18/16 Q1012 NOSIG RMK BLU BLU=
METAR LKKB 190300Z 16006KT CAVOK 19/16 Q1011 RMK BLU=
METAR LKKU NIL
METAR LKKV 190300Z 10002KT CAVOK 14/13 Q1013=
METAR LKLN 190300Z AUTO 00000KT CAVOK 15/13 Q1013=
METAR LKMT 190300Z 21003KT CAVOK 18/15 Q1013 NOSIG=
METAR LKNA 190300Z 10004KT CAVOK 19/15 Q1013 RMK BLACK=
METAR LKPD 190300Z VRB03KT CAVOK 17/15 Q1012 RMK BLU=
METAR LKPJ 190300Z AUTO VRB02KT CAVOK 16/15 Q1013=
METAR LKPR 190300Z 21006KT 170V240 CAVOK 18/15 Q1011 NOSIG=
METAR LKTB 190300Z 08005KT CAVOK 21/16 Q1012 NOSIG=
METAR LKTH 190300Z AUTO 19004KT 130V290 CAVOK 21/16 Q1014=
METAR LKVO NIL
METAR LOWG 190250Z AUTO VRB02KT 7000 0900W R16/P1500D R34/P1500D BCFG FEW003 16/16 Q1014=
METAR LOWI 190250Z AUTO 27006KT 9999 NSC 16/13 Q1016=
METAR LOWK 190250Z AUTO VRB02KT 9999 NCD 17/14 Q1016=
METAR LOWL 190250Z AUTO 29003KT 9999 NCD 18/16 Q1012=
METAR LOWS 190250Z AUTO 15007KT 9999 NCD 18/14 Q1013=
METAR LOWW 190250Z 14006KT CAVOK 19/17 Q1012 NOSIG=
METAR LOXT NIL
METAR LOXZ 190250Z VRB02KT 9999 FEW300 14/13 Q1016 RMK FEW=
METAR LZIB 190300Z 03008KT CAVOK 19/17 Q1013 NOSIG=
METAR LZKZ 190300Z 34002KT CAVOK 18/15 Q1016 NOSIG=
METAR LZMC 190300Z 24006KT CAVOK 22/16 Q1013=
METAR LZPP 190300Z 12007KT CAVOK 23/16 Q1013=
METAR LZSL 190300Z 00000KT CAVOK 15/15 Q1017=
METAR LZTT 190300Z 22003KT 9999 FEW050 14/12 Q1018=
METAR LZZI 190300Z VRB02KT CAVOK 15/15 Q1015=